Time;durP1;ratioP1;P1;durP2;ratioP2;P2;SDS_P1;SDS_P2;PMS_P1;PMS_P2;Temp;Humidity;BMP_temperature;BMP_pressure;BME280_temperature;BME280_humidity;BME280_pressure;Samples;Min_cycle;Max_cycle;Signal;HPM_P1;HPM_P2
2022/08/02 00:00:37;;;;;;;6.93;4.57;;;;;;;;;;4752960;30;20040;-52
2022/08/02 00:03:05;;;;;;;6.45;2.85;;;;;;;;;;4741894;30;20103;-48
2022/08/02 00:05:32;;;;;;;4.95;3.30;;;;;;;;;;4735215;30;20057;-49
2022/08/02 00:07:59;;;;;;;4.95;3.88;;;;;;;;;;4733659;30;20053;-46
2022/08/02 00:10:27;;;;;;;4.38;2.95;;;;;;;;;;4735089;30;20063;-47
2022/08/02 00:12:57;;;;;;;4.90;3.75;;;;;;;;;;4734942;30;20053;-48
2022/08/02 00:15:25;;;;;;;6.53;3.10;;;;;;;;;;4734642;30;20084;-50
2022/08/02 00:17:52;;;;;;;5.50;3.10;;;;;;;;;;4734805;30;20102;-48
2022/08/02 00:20:19;;;;;;;4.90;2.97;;;;;;;;;;4734380;30;20049;-49
2022/08/02 00:22:47;;;;;;;4.75;3.45;;;;;;;;;;4732627;30;20071;-53
2022/08/02 00:25:14;;;;;;;4.97;2.80;;;;;;;;;;4733536;30;20049;-52
2022/08/02 00:27:41;;;;;;;4.30;2.35;;;;;;;;;;4733280;30;20080;-53
2022/08/02 00:30:09;;;;;;;4.68;2.97;;;;;;;;;;4733826;30;20059;-49
2022/08/02 00:32:37;;;;;;;6.20;4.55;;;;;;;;;;4734764;30;20045;-46
2022/08/02 00:35:04;;;;;;;8.63;6.40;;;;;;;;;;4734763;30;20048;-48
2022/08/02 00:37:32;;;;;;;9.95;5.78;;;;;;;;;;4734632;30;20052;-54
2022/08/02 00:40:00;;;;;;;4.10;3.00;;;;;;;;;;4734524;30;20056;-46
2022/08/02 00:42:28;;;;;;;4.50;2.90;;;;;;;;;;4734673;30;20453;-50
2022/08/02 00:44:55;;;;;;;8.55;5.25;;;;;;;;;;4734253;30;20413;-50
2022/08/02 00:47:26;;;;;;;10.90;5.40;;;;;;;;;;4734513;30;20075;-52
2022/08/02 00:49:53;;;;;;;7.57;3.03;;;;;;;;;;4734329;30;20064;-56
2022/08/02 00:52:24;;;;;;;5.07;2.63;;;;;;;;;;4734296;30;20044;-52
2022/08/02 00:54:51;;;;;;;4.82;3.92;;;;;;;;;;4734325;30;20067;-49
2022/08/02 00:57:19;;;;;;;6.55;3.22;;;;;;;;;;4734204;30;20048;-52
2022/08/02 00:59:47;;;;;;;7.18;4.60;;;;;;;;;;4734316;30;20053;-51
2022/08/02 01:02:15;;;;;;;7.32;3.63;;;;;;;;;;4734357;30;20127;-53
2022/08/02 01:04:44;;;;;;;4.53;3.60;;;;;;;;;;4734101;30;20222;-52
2022/08/02 01:07:13;;;;;;;10.00;4.95;;;;;;;;;;4734082;30;20059;-51
2022/08/02 01:09:44;;;;;;;7.00;3.80;;;;;;;;;;4746907;30;20048;-50
2022/08/02 01:12:12;;;;;;;6.78;3.40;;;;;;;;;;4751632;30;20782;-52
2022/08/02 01:14:43;;;;;;;8.20;6.68;;;;;;;;;;4751619;30;20048;-53
2022/08/02 01:17:47;;;;;;;8.30;4.97;;;;;;;;;;4751735;30;20055;-48
2022/08/02 01:20:36;;;;;;;4.20;3.25;;;;;;;;;;4750063;30;20425;-50
2022/08/02 01:23:33;;;;;;;6.60;2.97;;;;;;;;;;4751712;30;20044;-50
2022/08/02 01:26:10;;;;;;;5.93;3.13;;;;;;;;;;4751325;30;20055;-50
2022/08/02 01:29:19;;;;;;;5.20;3.45;;;;;;;;;;4751389;30;20515;-50
2022/08/02 01:31:53;;;;;;;6.50;4.10;;;;;;;;;;4746694;30;20060;-53
2022/08/02 01:34:41;;;;;;;5.72;4.03;;;;;;;;;;4751429;30;20048;-53
2022/08/02 01:37:23;;;;;;;7.45;3.22;;;;;;;;;;4751201;30;20067;-50
2022/08/02 01:40:01;;;;;;;7.78;6.05;;;;;;;;;;4751118;30;20532;-46
2022/08/02 01:42:30;;;;;;;6.45;3.58;;;;;;;;;;4751395;30;20056;-48
2022/08/02 01:45:01;;;;;;;4.30;3.47;;;;;;;;;;4751446;30;20056;-49
2022/08/02 01:47:32;;;;;;;7.07;3.90;;;;;;;;;;4750744;30;20412;-52
2022/08/02 01:50:01;;;;;;;9.50;4.95;;;;;;;;;;4751300;30;20096;-53
2022/08/02 01:52:34;;;;;;;7.30;5.25;;;;;;;;;;4750728;30;20048;-50
2022/08/02 01:55:07;;;;;;;6.75;3.78;;;;;;;;;;4751245;30;20048;-48
2022/08/02 01:57:52;;;;;;;5.30;2.60;;;;;;;;;;4751141;30;20087;-51
2022/08/02 02:00:22;;;;;;;5.60;3.92;;;;;;;;;;4750935;30;20525;-51
2022/08/02 02:02:53;;;;;;;8.50;6.22;;;;;;;;;;4749972;30;20048;-48
2022/08/02 02:05:23;;;;;;;7.57;5.50;;;;;;;;;;4732631;30;20461;-48
2022/08/02 02:07:57;;;;;;;5.93;3.67;;;;;;;;;;4733049;30;20069;-54
2022/08/02 02:10:26;;;;;;;;;;;;;;;;;;4733950;30;20053;-50
2022/08/02 02:12:57;;;;;;;4.22;2.72;;;;;;;;;;4733519;30;19927;-55
2022/08/02 02:15:25;;;;;;;5.35;4.03;;;;;;;;;;4733416;30;20061;-51
2022/08/02 02:17:57;;;;;;;7.13;2.80;;;;;;;;;;4733605;30;20053;-52
2022/08/02 02:20:41;;;;;;;9.02;7.18;;;;;;;;;;4733422;30;20091;-47
2022/08/02 02:23:09;;;;;;;6.45;4.55;;;;;;;;;;4733753;30;20055;-50
2022/08/02 02:25:43;;;;;;;6.63;3.22;;;;;;;;;;4733562;30;20045;-48
2022/08/02 02:28:28;;;;;;;5.72;4.70;;;;;;;;;;4733425;30;20052;-52
2022/08/02 02:31:12;;;;;;;5.07;2.90;;;;;;;;;;4733398;30;20040;-49
2022/08/02 02:33:47;;;;;;;5.28;2.65;;;;;;;;;;4733380;30;20130;-48
2022/08/02 02:36:17;;;;;;;5.28;3.72;;;;;;;;;;4733346;30;20075;-48
2022/08/02 02:38:47;;;;;;;6.22;3.53;;;;;;;;;;4733148;30;20072;-53
2022/08/02 02:41:18;;;;;;;5.20;4.30;;;;;;;;;;4733524;30;20048;-53
2022/08/02 02:43:46;;;;;;;4.20;2.80;;;;;;;;;;4733203;30;20045;-49
2022/08/02 02:46:16;;;;;;;6.90;4.22;;;;;;;;;;4735678;30;20378;-48
2022/08/02 02:48:44;;;;;;;4.43;3.00;;;;;;;;;;4736183;30;20505;-50
2022/08/02 02:51:13;;;;;;;4.88;3.40;;;;;;;;;;4736667;30;20124;-49
2022/08/02 02:53:42;;;;;;;5.78;3.67;;;;;;;;;;4736382;30;20057;-51
2022/08/02 02:56:29;;;;;;;5.82;3.53;;;;;;;;;;4747242;30;20071;-50
2022/08/02 02:58:59;;;;;;;7.55;4.78;;;;;;;;;;4736181;30;20037;-49
2022/08/02 03:01:26;;;;;;;6.28;4.00;;;;;;;;;;4736007;30;20454;-52
2022/08/02 03:04:15;;;;;;;10.05;6.07;;;;;;;;;;4736243;30;20053;-50
2022/08/02 03:06:42;;;;;;;5.80;4.10;;;;;;;;;;4735250;30;20117;-52
2022/08/02 03:09:10;;;;;;;9.68;3.40;;;;;;;;;;4744179;30;20139;-47
2022/08/02 03:11:39;;;;;;;6.10;2.95;;;;;;;;;;4751756;30;20397;-50
2022/08/02 03:14:11;;;;;;;4.68;3.20;;;;;;;;;;4752720;30;20124;-50
2022/08/02 03:16:43;;;;;;;5.57;3.10;;;;;;;;;;4752643;30;20155;-48
2022/08/02 03:19:10;;;;;;;5.88;3.92;;;;;;;;;;4752481;30;20054;-49
2022/08/02 03:21:38;;;;;;;8.07;5.70;;;;;;;;;;4752693;30;20424;-51
2022/08/02 03:24:06;;;;;;;7.85;4.05;;;;;;;;;;4752730;30;20055;-51
2022/08/02 03:26:34;;;;;;;5.90;4.72;;;;;;;;;;4739553;30;20059;-48
2022/08/02 03:29:02;;;;;;;7.88;3.40;;;;;;;;;;4734851;30;20052;-54
2022/08/02 03:31:40;;;;;;;6.28;4.47;;;;;;;;;;4735547;30;20045;-51
2022/08/02 03:34:08;;;;;;;5.78;3.53;;;;;;;;;;4735665;30;20049;-51
2022/08/02 03:36:36;;;;;;;7.47;4.95;;;;;;;;;;4735626;30;20063;-49
2022/08/02 03:39:05;;;;;;;6.25;3.38;;;;;;;;;;4735124;30;20056;-52
2022/08/02 03:41:34;;;;;;;5.22;3.85;;;;;;;;;;4734926;30;20461;-51
2022/08/02 03:44:04;;;;;;;6.00;4.20;;;;;;;;;;4735319;30;20037;-54
2022/08/02 03:46:32;;;;;;;7.43;4.32;;;;;;;;;;4735431;30;20052;-51
2022/08/02 03:49:01;;;;;;;5.90;5.05;;;;;;;;;;4734995;30;20056;-49
2022/08/02 03:51:29;;;;;;;6.40;5.75;;;;;;;;;;4735534;30;20387;-53
2022/08/02 03:53:56;;;;;;;5.13;4.22;;;;;;;;;;4735309;30;20052;-53
2022/08/02 03:56:24;;;;;;;7.90;5.82;;;;;;;;;;4734384;30;20056;-50
2022/08/02 03:59:04;;;;;;;8.60;6.10;;;;;;;;;;4734932;30;20097;-51
2022/08/02 04:01:32;;;;;;;4.43;3.70;;;;;;;;;;4734974;30;20059;-48
2022/08/02 04:03:59;;;;;;;5.05;3.67;;;;;;;;;;4735200;30;20048;-51
2022/08/02 04:06:26;;;;;;;4.20;3.28;;;;;;;;;;4735172;30;20045;-52
2022/08/02 04:08:54;;;;;;;5.35;3.90;;;;;;;;;;4741958;30;20048;-48
2022/08/02 04:11:30;;;;;;;5.45;4.30;;;;;;;;;;4752518;30;20052;-51
2022/08/02 04:14:06;;;;;;;4.53;3.58;;;;;;;;;;4752637;30;20056;-49
2022/08/02 04:16:43;;;;;;;4.18;3.33;;;;;;;;;;4752673;30;20056;-49
2022/08/02 04:19:18;;;;;;;6.82;4.20;;;;;;;;;;4752559;30;20055;-50
2022/08/02 04:21:47;;;;;;;6.95;3.50;;;;;;;;;;4752297;30;20055;-48
2022/08/02 04:24:31;;;;;;;4.95;3.40;;;;;;;;;;4752541;30;20075;-52
2022/08/02 04:27:01;;;;;;;6.93;3.72;;;;;;;;;;4751837;30;20453;-49
2022/08/02 04:29:48;;;;;;;5.30;3.15;;;;;;;;;;4751222;30;20052;-47
2022/08/02 04:32:16;;;;;;;7.10;2.92;;;;;;;;;;4752088;30;20059;-49
2022/08/02 04:34:45;;;;;;;4.03;2.80;;;;;;;;;;4752265;30;20051;-50
2022/08/02 04:37:33;;;;;;;4.85;3.47;;;;;;;;;;4752280;30;20102;-54
2022/08/02 04:40:01;;;;;;;5.88;2.80;;;;;;;;;;4752163;30;20048;-47
2022/08/02 04:42:28;;;;;;;4.72;2.95;;;;;;;;;;4752143;30;20063;-49
2022/08/02 04:44:58;;;;;;;5.85;2.75;;;;;;;;;;4752100;30;20048;-49
2022/08/02 04:47:25;;;;;;;6.00;3.00;;;;;;;;;;4751670;30;20048;-50
2022/08/02 04:50:13;;;;;;;6.88;2.80;;;;;;;;;;4750907;30;20044;-51
2022/08/02 04:52:40;;;;;;;4.47;2.72;;;;;;;;;;4751162;30;20040;-46
2022/08/02 04:55:11;;;;;;;7.15;3.13;;;;;;;;;;4750960;30;20078;-53
2022/08/02 04:57:54;;;;;;;4.35;2.60;;;;;;;;;;4751173;30;20067;-50
2022/08/02 05:00:22;;;;;;;4.40;2.88;;;;;;;;;;4750935;30;20049;-48
2022/08/02 05:02:50;;;;;;;5.57;2.92;;;;;;;;;;4750821;30;20056;-51
2022/08/02 05:05:17;;;;;;;5.47;2.75;;;;;;;;;;4750658;30;20044;-47
2022/08/02 05:07:45;;;;;;;4.78;3.30;;;;;;;;;;4750498;30;20424;-48
2022/08/02 05:10:12;;;;;;;5.85;3.60;;;;;;;;;;4733736;30;20050;-51
2022/08/02 05:12:40;;;;;;;4.40;3.17;;;;;;;;;;4733248;30;20053;-49
2022/08/02 05:15:10;;;;;;;4.15;2.90;;;;;;;;;;4731863;30;20071;-50
2022/08/02 05:17:39;;;;;;;4.45;2.63;;;;;;;;;;4733137;30;20063;-52
2022/08/02 05:20:17;;;;;;;5.03;3.47;;;;;;;;;;4732981;30;20118;-49
2022/08/02 05:22:45;;;;;;;8.00;4.82;;;;;;;;;;4732959;30;20045;-53
2022/08/02 05:25:13;;;;;;;8.38;5.90;;;;;;;;;;4732836;30;20134;-51
2022/08/02 05:27:40;;;;;;;10.70;8.82;;;;;;;;;;4732922;30;20044;-46
2022/08/02 05:30:11;;;;;;;8.27;7.05;;;;;;;;;;4732974;30;20041;-51
2022/08/02 05:32:43;;;;;;;8.85;6.40;;;;;;;;;;4731874;30;20052;-50
2022/08/02 05:35:11;;;;;;;4.50;3.85;;;;;;;;;;4732836;30;20103;-49
2022/08/02 05:37:38;;;;;;;35.00;21.40;;;;;;;;;;4732720;30;20041;-48
2022/08/02 05:40:09;;;;;;;6.55;5.15;;;;;;;;;;4733057;30;20432;-50
2022/08/02 05:42:39;;;;;;;4.22;3.00;;;;;;;;;;4732825;30;20068;-51
2022/08/02 05:45:07;;;;;;;3.60;2.72;;;;;;;;;;4732749;30;20041;-50
2022/08/02 05:47:35;;;;;;;3.75;2.80;;;;;;;;;;4732442;30;20442;-50
2022/08/02 05:50:04;;;;;;;5.00;3.20;;;;;;;;;;4732440;30;20053;-51
2022/08/02 05:52:47;;;;;;;3.97;2.83;;;;;;;;;;4732285;30;20147;-47
2022/08/02 05:55:21;;;;;;;6.77;3.27;;;;;;;;;;4732654;30;20567;-50
2022/08/02 05:58:11;;;;;;;4.68;3.17;;;;;;;;;;4732422;30;20085;-46
2022/08/02 06:00:40;;;;;;;11.25;6.35;;;;;;;;;;4732832;30;20516;-46
2022/08/02 06:03:25;;;;;;;5.00;3.67;;;;;;;;;;4731474;30;20405;-52
2022/08/02 06:06:05;;;;;;;5.47;3.75;;;;;;;;;;4733286;30;20103;-47
2022/08/02 06:08:47;;;;;;;4.60;3.22;;;;;;;;;;4738081;30;20040;-48
2022/08/02 06:11:21;;;;;;;5.13;3.50;;;;;;;;;;4751135;30;20048;-52
2022/08/02 06:13:50;;;;;;;4.18;3.17;;;;;;;;;;4749320;30;20135;-47
2022/08/02 06:16:18;;;;;;;5.82;3.38;;;;;;;;;;4750813;30;20056;-50
2022/08/02 06:18:59;;;;;;;3.75;2.75;;;;;;;;;;4750726;30;20413;-48
2022/08/02 06:21:27;;;;;;;5.05;3.30;;;;;;;;;;4754227;30;20052;-48
2022/08/02 06:24:18;;;;;;;8.43;3.25;;;;;;;;;;4753950;30;20072;-54
2022/08/02 06:26:51;;;;;;;4.07;3.17;;;;;;;;;;4745295;30;20131;-48
2022/08/02 06:29:20;;;;;;;6.70;3.30;;;;;;;;;;4736751;30;20060;-49
2022/08/02 06:31:52;;;;;;;5.03;3.13;;;;;;;;;;4736626;30;20060;-48
2022/08/02 06:34:19;;;;;;;5.32;4.00;;;;;;;;;;4736669;30;20048;-51
2022/08/02 06:36:55;;;;;;;4.25;3.25;;;;;;;;;;4735970;30;20049;-48
2022/08/02 06:39:31;;;;;;;5.18;3.20;;;;;;;;;;4749859;30;20053;-50
2022/08/02 06:42:10;;;;;;;7.20;3.13;;;;;;;;;;4736437;30;20052;-49
2022/08/02 06:44:43;;;;;;;3.85;3.20;;;;;;;;;;4735353;30;20135;-49
2022/08/02 06:47:18;;;;;;;5.57;3.40;;;;;;;;;;4736384;30;20116;-50
2022/08/02 06:49:48;;;;;;;5.95;3.50;;;;;;;;;;4736032;30;20044;-48
2022/08/02 06:52:21;;;;;;;32.72;20.25;;;;;;;;;;4735992;30;20049;-50
2022/08/02 06:54:55;;;;;;;10.70;7.78;;;;;;;;;;4736135;30;20081;-49
2022/08/02 06:57:24;;;;;;;4.90;3.95;;;;;;;;;;4736095;30;20102;-48
2022/08/02 06:59:51;;;;;;;5.15;3.17;;;;;;;;;;4735909;30;20051;-48
2022/08/02 07:02:18;;;;;;;4.18;2.85;;;;;;;;;;4736149;30;20517;-51
2022/08/02 07:04:46;;;;;;;4.15;2.70;;;;;;;;;;4736076;30;20044;-49
2022/08/02 07:07:13;;;;;;;3.90;2.90;;;;;;;;;;4736289;30;20092;-47
2022/08/02 07:09:41;;;;;;;5.35;2.85;;;;;;;;;;4742955;30;20045;-50
2022/08/02 07:12:29;;;;;;;8.57;2.50;;;;;;;;;;4735657;30;20533;-47
2022/08/02 07:15:01;;;;;;;4.22;2.35;;;;;;;;;;4735511;30;20060;-50
2022/08/02 07:17:30;;;;;;;3.35;2.40;;;;;;;;;;4735636;30;20048;-49
2022/08/02 07:19:58;;;;;;;5.20;2.15;;;;;;;;;;4735832;30;20084;-51
2022/08/02 07:22:27;;;;;;;5.90;2.42;;;;;;;;;;4735841;30;20040;-50
2022/08/02 07:24:56;;;;;;;2.92;2.30;;;;;;;;;;4735353;30;20078;-53
2022/08/02 07:27:25;;;;;;;4.80;2.47;;;;;;;;;;4735484;30;20049;-48
2022/08/02 07:29:54;;;;;;;5.15;2.13;;;;;;;;;;4735076;30;20044;-50
2022/08/02 07:32:28;;;;;;;23.10;16.63;;;;;;;;;;4735473;30;20049;-50
2022/08/02 07:34:57;;;;;;;10.07;4.45;;;;;;;;;;4735454;30;20059;-54
2022/08/02 07:37:27;;;;;;;3.35;2.20;;;;;;;;;;4735616;30;20044;-50
2022/08/02 07:40:15;;;;;;;4.28;1.95;;;;;;;;;;4735212;30;20494;-55
2022/08/02 07:42:51;;;;;;;5.15;2.03;;;;;;;;;;4735087;30;20056;-51
2022/08/02 07:45:26;;;;;;;6.32;2.17;;;;;;;;;;4735601;30;20076;-51
2022/08/02 07:47:55;;;;;;;4.38;2.05;;;;;;;;;;4735131;30;20383;-47
2022/08/02 07:50:22;;;;;;;3.72;1.85;;;;;;;;;;4735040;30;20056;-52
2022/08/02 07:52:51;;;;;;;2.80;1.60;;;;;;;;;;4735404;30;20049;-50
2022/08/02 07:55:24;;;;;;;6.45;2.20;;;;;;;;;;4735042;30;20052;-50
2022/08/02 07:58:05;;;;;;;2.50;1.48;;;;;;;;;;4735672;30;20049;-51
2022/08/02 08:00:37;;;;;;;4.35;1.88;;;;;;;;;;4735297;30;20049;-51
2022/08/02 08:03:05;;;;;;;4.10;1.60;;;;;;;;;;4735219;30;20049;-47
2022/08/02 08:05:32;;;;;;;2.70;1.52;;;;;;;;;;4735199;30;20052;-49
2022/08/02 08:07:59;;;;;;;3.75;1.50;;;;;;;;;;4735387;30;20510;-47
2022/08/02 08:10:27;;;;;;;2.90;1.40;;;;;;;;;;4752544;30;20044;-50
2022/08/02 08:12:54;;;;;;;2.17;1.40;;;;;;;;;;4752432;30;20501;-52
2022/08/02 08:15:21;;;;;;;2.47;1.67;;;;;;;;;;4752374;30;20157;-53
2022/08/02 08:17:49;;;;;;;4.80;1.85;;;;;;;;;;4752434;30;20059;-52
2022/08/02 08:20:16;;;;;;;3.20;1.90;;;;;;;;;;4752489;30;20058;-51
2022/08/02 08:22:43;;;;;;;4.25;2.00;;;;;;;;;;4752503;30;20048;-48
2022/08/02 08:25:10;;;;;;;2.75;1.77;;;;;;;;;;4752734;30;20056;-49
2022/08/02 08:27:50;;;;;;;2.47;1.63;;;;;;;;;;4752620;30;20092;-52
2022/08/02 08:30:19;;;;;;;2.28;1.52;;;;;;;;;;4751735;30;20052;-49
2022/08/02 08:32:47;;;;;;;3.70;1.88;;;;;;;;;;4752348;30;20045;-49
2022/08/02 08:35:14;;;;;;;3.58;1.75;;;;;;;;;;4752136;30;20045;-47
2022/08/02 08:37:42;;;;;;;4.82;1.65;;;;;;;;;;4752076;30;20044;-47
2022/08/02 08:40:10;;;;;;;3.67;1.52;;;;;;;;;;4751213;30;20055;-54
2022/08/02 08:42:38;;;;;;;2.60;1.35;;;;;;;;;;4751764;30;20048;-47
2022/08/02 08:45:06;;;;;;;4.38;1.55;;;;;;;;;;4752151;30;20048;-50
2022/08/02 08:47:41;;;;;;;24.15;14.00;;;;;;;;;;4752182;30;20047;-47
2022/08/02 08:50:11;;;;;;;7.05;3.90;;;;;;;;;;4754282;30;20098;-48
2022/08/02 08:53:05;;;;;;;4.10;1.83;;;;;;;;;;4734333;30;20405;-46
2022/08/02 08:55:35;;;;;;;4.07;1.25;;;;;;;;;;4734308;30;20044;-51
2022/08/02 08:58:05;;;;;;;2.92;1.58;;;;;;;;;;4734404;30;20055;-46
2022/08/02 09:00:34;;;;;;;2.72;1.52;;;;;;;;;;4734189;30;20064;-50
2022/08/02 09:03:05;;;;;;;3.22;1.40;;;;;;;;;;4733867;30;20053;-53
2022/08/02 09:05:38;;;;;;;3.55;1.30;;;;;;;;;;4734055;30;20080;-51
2022/08/02 09:08:07;;;;;;;16.35;10.45;;;;;;;;;;4734061;30;20150;-49
2022/08/02 09:10:44;;;;;;;8.00;3.55;;;;;;;;;;4733562;30;20056;-51
2022/08/02 09:13:16;;;;;;;2.30;1.25;;;;;;;;;;4734065;30;20544;-47
2022/08/02 09:16:05;;;;;;;2.65;1.48;;;;;;;;;;4733975;30;20068;-48
2022/08/02 09:18:43;;;;;;;2.15;1.30;;;;;;;;;;4734153;30;20048;-51
2022/08/02 09:21:13;;;;;;;1.92;1.20;;;;;;;;;;4734287;30;20057;-49
2022/08/02 09:23:44;;;;;;;2.60;1.40;;;;;;;;;;4733708;30;20044;-51
2022/08/02 09:26:14;;;;;;;3.10;1.30;;;;;;;;;;4734107;30;20404;-51
2022/08/02 09:28:45;;;;;;;2.65;1.60;;;;;;;;;;4734005;30;20115;-51
2022/08/02 09:31:15;;;;;;;2.33;1.23;;;;;;;;;;4733641;30;20102;-47
2022/08/02 09:33:44;;;;;;;1.92;1.20;;;;;;;;;;4733847;30;20048;-50
2022/08/02 09:36:15;;;;;;;3.08;1.70;;;;;;;;;;4733926;30;20524;-54
2022/08/02 09:38:55;;;;;;;3.33;1.20;;;;;;;;;;4733880;30;20135;-52
2022/08/02 09:41:25;;;;;;;1.63;1.15;;;;;;;;;;4733760;30;20051;-48
2022/08/02 09:43:54;;;;;;;2.90;1.10;;;;;;;;;;4733552;30;20051;-52
2022/08/02 09:46:39;;;;;;;1.83;1.20;;;;;;;;;;4733616;30;20049;-48
2022/08/02 09:49:18;;;;;;;5.85;3.58;;;;;;;;;;4746971;30;20060;-50
2022/08/02 09:51:45;;;;;;;2.17;1.48;;;;;;;;;;4733623;30;20413;-52
2022/08/02 09:54:19;;;;;;;3.85;1.20;;;;;;;;;;4734541;30;20120;-52
2022/08/02 09:56:48;;;;;;;3.28;1.10;;;;;;;;;;4737018;30;20045;-53
2022/08/02 09:59:18;;;;;;;2.20;1.10;;;;;;;;;;4736890;30;20465;-48
2022/08/02 10:01:48;;;;;;;2.95;1.38;;;;;;;;;;4736704;30;20048;-57
2022/08/02 10:04:30;;;;;;;2.88;1.38;;;;;;;;;;4736972;30;20506;-55
2022/08/02 10:07:19;;;;;;;2.15;1.27;;;;;;;;;;4737195;30;20048;-51
2022/08/02 10:09:48;;;;;;;2.13;1.00;;;;;;;;;;4750704;30;20509;-52
2022/08/02 10:12:19;;;;;;;2.63;1.20;;;;;;;;;;4754571;30;20050;-56
2022/08/02 10:14:49;;;;;;;2.33;1.30;;;;;;;;;;4754314;30;20452;-50
2022/08/02 10:17:18;;;;;;;3.40;1.40;;;;;;;;;;4754197;30;20049;-49
2022/08/02 10:19:47;;;;;;;2.95;1.30;;;;;;;;;;4754687;30;20402;-50
2022/08/02 10:22:29;;;;;;;4.32;1.30;;;;;;;;;;4754513;30;20044;-49
2022/08/02 10:25:02;;;;;;;3.17;1.42;;;;;;;;;;4754451;30;20040;-56
2022/08/02 10:27:30;;;;;;;3.60;1.23;;;;;;;;;;4754374;30;20053;-50
2022/08/02 10:30:19;;;;;;;1.40;1.10;;;;;;;;;;4754447;30;20055;-52
2022/08/02 10:32:48;;;;;;;3.83;1.25;;;;;;;;;;4754122;30;20660;-51
2022/08/02 10:35:20;;;;;;;2.70;1.33;;;;;;;;;;4753895;30;20567;-50
2022/08/02 10:38:00;;;;;;;18.95;14.10;;;;;;;;;;4754020;30;20138;-54
2022/08/02 10:40:43;;;;;;;2.50;1.48;;;;;;;;;;4754290;30;20052;-54
2022/08/02 10:43:11;;;;;;;1.42;1.20;;;;;;;;;;4754216;30;20052;-53
2022/08/02 10:45:39;;;;;;;3.28;1.30;;;;;;;;;;4733788;30;20048;-53
2022/08/02 10:48:07;;;;;;;2.50;1.30;;;;;;;;;;4734942;30;20048;-50
2022/08/02 10:50:46;;;;;;;3.35;1.13;;;;;;;;;;4736002;30;20114;-53
2022/08/02 10:53:31;;;;;;;1.67;1.10;;;;;;;;;;4734450;30;20048;-53
2022/08/02 10:56:01;;;;;;;1.95;1.25;;;;;;;;;;4736415;30;20079;-57
2022/08/02 10:58:31;;;;;;;1.65;1.10;;;;;;;;;;4732991;30;20052;-44
2022/08/02 11:01:04;;;;;;;5.07;1.38;;;;;;;;;;4734448;30;20044;-51
2022/08/02 11:03:35;;;;;;;2.35;0.95;;;;;;;;;;4735157;30;20088;-48
2022/08/02 11:06:12;;;;;;;2.75;1.23;;;;;;;;;;4734020;30;20063;-49
2022/08/02 11:09:26;;;;;;;2.28;1.13;;;;;;;;;;4743008;30;20052;-51
2022/08/02 11:12:09;;;;;;;1.83;1.10;;;;;;;;;;4752330;30;20133;-51
2022/08/02 11:14:39;;;;;;;2.20;1.17;;;;;;;;;;4752171;30;20131;-52
2022/08/02 11:17:12;;;;;;;1.75;1.02;;;;;;;;;;4752649;30;20498;-49
2022/08/02 11:20:07;;;;;;;4.85;1.50;;;;;;;;;;4753845;30;20192;-51
2022/08/02 11:22:35;;;;;;;3.10;1.45;;;;;;;;;;4753495;30;20094;-49
2022/08/02 11:25:20;;;;;;;2.22;1.10;;;;;;;;;;4753451;30;20052;-51
2022/08/02 11:28:06;;;;;;;3.13;1.10;;;;;;;;;;4753229;30;20135;-50
2022/08/02 11:30:33;;;;;;;2.90;1.20;;;;;;;;;;4753349;30;20054;-57
2022/08/02 11:33:01;;;;;;;5.38;2.97;;;;;;;;;;4753292;30;20505;-52
2022/08/02 11:35:36;;;;;;;4.22;1.45;;;;;;;;;;4753312;30;20051;-55
2022/08/02 11:38:15;;;;;;;2.08;1.10;;;;;;;;;;4753403;30;20052;-52
2022/08/02 11:40:43;;;;;;;1.77;1.10;;;;;;;;;;4753539;30;20050;-53
2022/08/02 11:43:23;;;;;;;4.90;1.50;;;;;;;;;;4753377;30;20055;-51
2022/08/02 11:45:51;;;;;;;4.18;1.00;;;;;;;;;;4753141;30;20120;-60
2022/08/02 11:48:32;;;;;;;15.82;9.82;;;;;;;;;;4753062;30;20059;-53
2022/08/02 11:51:03;;;;;;;8.02;1.95;;;;;;;;;;4753162;30;20052;-50
2022/08/02 11:53:44;;;;;;;2.70;1.00;;;;;;;;;;4752922;30;20043;-53
2022/08/02 11:56:13;;;;;;;3.28;1.00;;;;;;;;;;4753007;30;20119;-50
2022/08/02 11:59:00;;;;;;;1.92;0.90;;;;;;;;;;4753041;30;20052;-56
2022/08/02 12:01:30;;;;;;;2.95;1.00;;;;;;;;;;4752980;30;20228;-53
2022/08/02 12:04:01;;;;;;;;;;;;;;;;;;4753322;30;20072;-54
2022/08/02 12:06:29;;;;;;;1.83;0.90;;;;;;;;;;4752493;30;19933;-53
2022/08/02 12:09:08;;;;;;;1.75;0.95;;;;;;;;;;4744879;30;20044;-51
2022/08/02 12:11:47;;;;;;;3.47;1.13;;;;;;;;;;4747089;30;20084;-51
2022/08/02 12:14:15;;;;;;;1.92;0.93;;;;;;;;;;4734226;30;20558;-52
2022/08/02 12:19:28;;;;;;;2.17;1.17;;;;;;;;;;4734388;30;20057;-53
2022/08/02 12:22:16;;;;;;;3.22;1.30;;;;;;;;;;4734793;30;20045;-54
2022/08/02 12:24:47;;;;;;;2.55;0.98;;;;;;;;;;4734943;30;20506;-53
2022/08/02 12:27:47;;;;;;;1.58;1.02;;;;;;;;;;4734378;30;20049;-55
2022/08/02 12:30:19;;;;;;;1.60;1.00;;;;;;;;;;4716033;30;20052;-53
2022/08/02 12:33:07;;;;;;;1.80;1.00;;;;;;;;;;4734629;30;20045;-52
2022/08/02 12:35:39;;;;;;;4.45;1.02;;;;;;;;;;4734564;30;20049;-53
2022/08/02 12:38:10;;;;;;;2.03;1.10;;;;;;;;;;4734528;30;20044;-55
2022/08/02 12:40:41;;;;;;;2.20;1.10;;;;;;;;;;4734673;30;20049;-53
2022/08/02 12:43:17;;;;;;;2.88;1.20;;;;;;;;;;4734602;30;20045;-53
2022/08/02 12:45:54;;;;;;;3.50;1.20;;;;;;;;;;4734291;30;20053;-52
2022/08/02 12:48:36;;;;;;;5.75;1.35;;;;;;;;;;4734519;30;20041;-54
2022/08/02 12:51:20;;;;;;;2.90;1.20;;;;;;;;;;4734643;30;20044;-56
2022/08/02 12:53:48;;;;;;;3.42;1.27;;;;;;;;;;4734471;30;20110;-51
2022/08/02 12:56:31;;;;;;;2.45;1.17;;;;;;;;;;4734172;30;20537;-52
2022/08/02 12:58:59;;;;;;;2.75;1.50;;;;;;;;;;4734365;30;20040;-54
2022/08/02 13:01:27;;;;;;;2.15;1.00;;;;;;;;;;4734171;30;20052;-56
2022/08/02 13:03:56;;;;;;;2.55;1.08;;;;;;;;;;4734097;30;20080;-54
2022/08/02 13:06:39;;;;;;;1.98;1.00;;;;;;;;;;4734094;30;20053;-53
2022/08/02 13:09:15;;;;;;;2.63;0.93;;;;;;;;;;4743797;30;20052;-55
2022/08/02 13:11:43;;;;;;;2.28;0.95;;;;;;;;;;4751509;30;20058;-53
2022/08/02 13:14:12;;;;;;;1.55;0.93;;;;;;;;;;4751906;30;20048;-54
2022/08/02 13:16:42;;;;;;;2.50;1.08;;;;;;;;;;4751255;30;20052;-53
2022/08/02 13:19:10;;;;;;;1.77;0.90;;;;;;;;;;4749916;30;20501;-54
2022/08/02 13:21:37;;;;;;;1.58;1.05;;;;;;;;;;4750270;30;20056;-52
2022/08/02 13:24:24;;;;;;;2.50;0.88;;;;;;;;;;4735152;30;20075;-52
2022/08/02 13:27:11;;;;;;;3.85;1.23;;;;;;;;;;4734285;30;20051;-53
2022/08/02 13:29:38;;;;;;;2.20;0.90;;;;;;;;;;4733550;30;20045;-53
2022/08/02 13:32:06;;;;;;;3.85;1.05;;;;;;;;;;4733854;30;20052;-53
2022/08/02 13:34:34;;;;;;;2.35;1.10;;;;;;;;;;4732433;30;20060;-51
2022/08/02 13:37:03;;;;;;;3.10;1.35;;;;;;;;;;4733640;30;20056;-54
2022/08/02 13:39:30;;;;;;;1.73;0.80;;;;;;;;;;4733759;30;20498;-51
2022/08/02 13:42:00;;;;;;;1.20;0.80;;;;;;;;;;4733476;30;20052;-55
2022/08/02 13:44:28;;;;;;;2.50;1.20;;;;;;;;;;4733829;30;20088;-54
2022/08/02 13:46:56;;;;;;;1.75;0.90;;;;;;;;;;4733436;30;20040;-51
2022/08/02 13:49:23;;;;;;;3.75;0.88;;;;;;;;;;4733445;30;20048;-51
2022/08/02 13:52:11;;;;;;;1.20;0.90;;;;;;;;;;4733794;30;20407;-51
2022/08/02 13:54:38;;;;;;;1.63;0.80;;;;;;;;;;4733060;30;20061;-54
2022/08/02 13:57:06;;;;;;;2.22;1.02;;;;;;;;;;4733437;30;20045;-54
2022/08/02 13:59:34;;;;;;;2.15;0.98;;;;;;;;;;4733488;30;20056;-53
2022/08/02 14:02:22;;;;;;;3.58;1.25;;;;;;;;;;4733746;30;20506;-56
2022/08/02 14:04:49;;;;;;;2.20;1.20;;;;;;;;;;4733458;30;20057;-52
2022/08/02 14:07:17;;;;;;;1.50;1.10;;;;;;;;;;4733289;30;20090;-55
2022/08/02 14:09:45;;;;;;;2.17;1.13;;;;;;;;;;4742588;30;20041;-51
2022/08/02 14:12:13;;;;;;;2.08;0.90;;;;;;;;;;4733630;30;20570;-54
2022/08/02 14:14:41;;;;;;;2.05;0.90;;;;;;;;;;4733448;30;20049;-54
2022/08/02 14:17:12;;;;;;;1.15;0.70;;;;;;;;;;4732337;30;20513;-52
2022/08/02 14:19:39;;;;;;;4.18;0.80;;;;;;;;;;4745835;30;20052;-55
2022/08/02 14:22:06;;;;;;;2.60;1.02;;;;;;;;;;4732450;30;20049;-56
2022/08/02 14:24:47;;;;;;;1.85;1.10;;;;;;;;;;4732727;30;20041;-53
2022/08/02 14:27:14;;;;;;;1.58;0.80;;;;;;;;;;4733658;30;20044;-51
2022/08/02 14:29:42;;;;;;;2.58;1.05;;;;;;;;;;4733646;30;20041;-56
2022/08/02 14:32:09;;;;;;;3.05;0.90;;;;;;;;;;4733828;30;20067;-51
2022/08/02 14:34:37;;;;;;;3.55;1.08;;;;;;;;;;4733373;30;20044;-50
2022/08/02 14:37:04;;;;;;;3.92;1.25;;;;;;;;;;4746520;30;20914;-53
2022/08/02 14:39:31;;;;;;;1.77;1.10;;;;;;;;;;4733385;30;20087;-53
2022/08/02 14:42:18;;;;;;;2.90;0.90;;;;;;;;;;4735898;30;20110;-49
2022/08/02 14:44:46;;;;;;;2.72;1.25;;;;;;;;;;4736360;30;20106;-53
2022/08/02 14:47:13;;;;;;;2.92;1.00;;;;;;;;;;4736840;30;20052;-53
2022/08/02 14:49:40;;;;;;;2.53;1.42;;;;;;;;;;4736810;30;20045;-52
2022/08/02 14:52:13;;;;;;;2.75;1.30;;;;;;;;;;4736241;30;20095;-53
2022/08/02 14:54:41;;;;;;;3.30;1.40;;;;;;;;;;4748729;30;20510;-52
2022/08/02 14:57:09;;;;;;;3.28;1.33;;;;;;;;;;4734829;30;20072;-53
2022/08/02 14:59:36;;;;;;;3.08;1.50;;;;;;;;;;4735098;30;20048;-50
2022/08/02 15:02:09;;;;;;;2.73;1.40;;;;;;;;;;4734585;30;20052;-51
2022/08/02 15:04:40;;;;;;;4.53;1.45;;;;;;;;;;4734827;30;20128;-54
2022/08/02 15:07:11;;;;;;;3.40;1.70;;;;;;;;;;4735088;30;20052;-53
2022/08/02 15:09:38;;;;;;;2.70;1.60;;;;;;;;;;4746015;30;20509;-53
2022/08/02 15:12:07;;;;;;;3.63;1.42;;;;;;;;;;4752338;30;20102;-54
2022/08/02 15:14:35;;;;;;;3.53;1.38;;;;;;;;;;4752173;30;20221;-51
2022/08/02 15:17:03;;;;;;;3.38;1.67;;;;;;;;;;4752228;30;20130;-52